< Cyclone 197306 1973 Season Cyclone 197308 >
Cyclone 197307 (KIRSTY)
General InformationTrack Information on Google Maps || ResourceGoogle EarthGE AnimationAtom FeedGeoJSON
Detalied Best Track (Time Zone = UTC)
Year Month Day Hour Lat. Long. Pressure (hPa) Wind (kt) Class Image Chart
1973 2 24 20 -14.4 157.5 999 0 0 -- --
1973 2 24 23 -14.5 157.4 998 0 0 -- --
1973 2 25 02 -14.7 157.3 996 0 0 -- --
1973 2 25 05 -15.0 157.3 994 0 0 -- --
1973 2 25 08 -15.2 157.2 992 0 0 -- --
1973 2 25 11 -15.7 157.1 990 0 0 -- --
1973 2 25 14 -16.0 157.0 988 0 0 -- --
1973 2 25 17 -16.3 156.9 986 0 0 -- --
1973 2 25 20 -16.6 156.7 984 0 0 -- --
1973 2 25 23 -17.0 156.5 982 0 0 -- --
1973 2 26 02 -17.4 156.2 981 0 0 -- --
1973 2 26 05 -17.8 155.8 980 0 0 -- --
1973 2 26 08 -18.1 155.6 979 0 0 -- --
1973 2 26 11 -18.4 155.4 978 0 0 -- --
1973 2 26 14 -19.1 155.2 977 0 0 -- --
1973 2 26 17 -19.5 155.0 976 0 0 -- --
1973 2 26 20 -20.1 154.9 976 0 0 -- --
1973 2 26 23 -21.0 154.9 975 0 0 -- --
1973 2 27 02 -21.8 155.1 976 0 0 -- --
1973 2 27 05 -22.6 155.3 977 0 0 -- --
1973 2 27 08 -23.6 155.5 978 0 0 -- --
1973 2 27 11 -24.5 155.7 980 0 0 -- --
1973 2 27 14 -25.5 155.9 981 0 0 -- --
1973 2 27 17 -26.4 156.1 982 0 0 -- --
1973 2 27 20 -27.3 156.3 984 0 0 -- --
1973 2 27 23 -28.1 156.5 986 0 0 -- --
1973 2 28 02 -28.8 156.8 987 0 0 -- --
1973 2 28 05 -29.6 157.0 988 0 0 -- --
1973 2 28 08 -30.1 157.2 989 0 0 -- --
1973 2 28 11 -30.7 157.7 990 0 0 -- --
1973 2 28 14 -31.1 158.1 991 0 0 -- --
1973 2 28 17 -31.7 158.7 992 0 0 -- --
1973 2 28 20 -32.1 159.2 993 0 0 -- --
1973 2 28 23 -32.7 159.8 994 0 0 -- --
1973 3 1 02 -33.2 160.2 995 0 0 -- --
1973 3 1 05 -34.2 160.6 996 0 0 -- --
< Cyclone 197306 1973 Season Cyclone 197308 >

Help